Flight Track Log - Related Links

Times and Time Zones

All times are in EDT time to prevent confusion due to time zone crossing. See the SWA1729 flight status page for this flight to view local times or setup timezone preferences in your user account.

Time Position Orientation Groundspeed Altitude Reporting Facility
EDT Latitude Longitude Course Direction KTS km/h feet Rate Location/Type
Sun 22h05:06 29.6856 -95.2747 342° North 250 463 1.700  Level Houston Center
Sun 22h06:07 29.7089 -95.3508 289° West 259 480 5.300 3.492 Climbing Houston Center
Sun 22h07:08 29.7275 -95.4219 287° West 230 426 8.800 2.705 Climbing Houston Center
Sun 22h08:09 29.7503 -95.5069 287° West 271 502 10.800 2.066 Climbing Houston Center
Sun 22h09:10 29.7781 -95.6089 287° West 330 612 13.000 2.508 Climbing Houston Center
Sun 22h10:00 29.8615 -95.8705 295° West  Level FlightAware Approximate
Sun 22h10:11 29.8053 -95.7142 287° West 342 634 15.900  Level Houston Center
Sun 22h11:12 29.8328 -95.8186 287° West 341 631 18.300 2.311 Climbing Houston Center
Sun 22h12:13 29.8622 -95.9281 287° West 356 660 20.600 2.115 Climbing Houston Center
Sun 22h13:14 29.8967 -96.0581 287° West 365 676 22.600 1.574 Climbing Houston Center
Sun 22h14:15 29.9292 -96.1775 287° West 388 719 23.800 1.574 Climbing Houston Center
Sun 22h15:16 29.9428 -96.3042 277° West 397 735 25.800 2.146 Climbing Houston Center
Sun 22h16:18 29.9481 -96.4292 273° West 394 729 28.200 1.951 Climbing Houston Center
Sun 22h17:19 29.9547 -96.5497 274° West 382 708 29.800 1.623 Climbing Houston Center
Sun 22h18:20 29.9778 -96.6667 283° West 375 695 31.500 1.672 Climbing Houston Center
Sun 22h19:21 30.0019 -96.7806 284° West 369 684 33.200 1.623 Climbing Houston Center
Sun 22h20:22 30.0239 -96.8897 283° West 355 658 34.800 1.240 Climbing Houston Center
Sun 22h21:22 30.0458 -96.9967 283° West 346 641 35.700 545 Climbing Houston Center
Sun 22h22:23 30.0742 -97.1269 284° West 351 650 35.900 98 Climbing Houston Center
Sun 22h23:24 30.0947 -97.2297 283° West 353 653 35.900  Level Houston Center
Sun 22h24:25 30.1172 -97.3411 283° West 353 653 35.900  Level Houston Center
Sun 22h25:26 30.1392 -97.4517 283° West 350 649 35.900 49 Level Houston Center
Sun 22h26:27 30.1619 -97.5628 283° West 351 650 36.000  Climbing Houston Center
Sun 22h27:28 30.1847 -97.6717 284° West 347 642 35.900  Descending Houston Center
Sun 22h28:29 30.2067 -97.7833 283° West 351 650 36.000 49 Climbing Houston Center
Sun 22h29:30 30.2314 -97.9053 283° West 352 652 36.000  Level Houston Center
Sun 22h30:31 30.2525 -98.0147 283° West 350 649 36.000  Level Houston Center
Sun 22h31:32 30.2747 -98.1272 283° West 357 661 36.000  Level Houston Center
Sun 22h32:33 30.2983 -98.2472 283° West 356 660 36.000 -49 Level Houston Center
Sun 22h33:34 30.3178 -98.3461 283° West 357 661 35.900 -50 Descending Houston Center
Sun 22h34:34 30.3417 -98.4611 284° West 362 671 35.900 50 Level Houston Center
Sun 22h35:35 30.3614 -98.5747 281° West 358 663 36.000  Climbing Houston Center
Sun 22h36:36 30.3839 -98.6897 283° West 363 673 35.900 -49 Descending Houston Center
Sun 22h37:37 30.4061 -98.8047 283° West 363 673 35.900  Level Houston Center
Sun 22h38:49 30.4331 -98.9394 283° West 364 674 35.900 45 Level Houston Center
Sun 22h39:50 30.4556 -99.0536 283° West 361 668 36.000  Climbing Houston Center
Sun 22h40:51 30.4775 -99.1706 282° West 356 660 35.900 -49 Descending Houston Center
Sun 22h41:52 30.4992 -99.2839 283° West 359 665 35.900  Level Houston Center
Sun 22h42:53 30.5211 -99.3947 283° West 356 660 35.900  Level Houston Center
Sun 22h43:54 30.5411 -99.5061 282° West 355 658 35.900  Level Houston Center
Sun 22h44:54 30.5619 -99.6172 282° West 355 658 35.900  Level Houston Center
Sun 22h45:55 30.5825 -99.7289 282° West 355 658 35.900  Level Houston Center
Sun 22h46:56 30.6056 -99.8600 282° West 351 650 35.900  Level Houston Center
Sun 22h47:57 30.6303 -99.9703 285° West 355 658 35.900  Level Houston Center
Sun 22h48:58 30.6525 -100.0817 283° West 356 660 35.900  Level Houston Center
Sun 22h49:59 30.6747 -100.1925 283° West 354 655 35.900  Level Houston Center
Sun 22h51:00 30.6967 -100.3050 283° West 358 663 35.900  Level Houston Center
Sun 22h52:01 30.7200 -100.4175 284° West 358 663 35.900  Level Houston Center
Sun 22h53:02 30.7411 -100.5303 282° West 357 661 35.900  Level Houston Center
Sun 22h54:02 30.7636 -100.6447 283° West 366 678 35.900  Level Houston Center
Sun 22h55:03 30.7856 -100.7564 283° West 358 663 35.900  Level Houston Center
Sun 22h56:04 30.8086 -100.8711 283° West 365 676 35.900  Level Houston Center
Sun 22h57:05 30.8306 -100.9822 283° West 360 666 35.900  Level Houston Center
Sun 22h58:05 30.8553 -101.1197 282° West 362 671 35.900  Level Houston Center
Sun 22h59:06 30.8800 -101.2303 285° West 356 660 35.900  Level Houston Center
Sun 23h00:07 30.9019 -101.3450 283° West 361 668 35.900  Level Houston Center
Sun 23h01:08 30.9225 -101.4608 282° West 365 676 35.900  Level Houston Center
Sun 23h02:08 30.9431 -101.5686 283° West 364 674 35.900  Level Houston Center
Sun 23h03:09 30.9642 -101.6850 282° West 366 678 35.900  Level Houston Center
Sun 23h04:10 30.9864 -101.7986 283° West 363 673 35.900  Level Houston Center
Sun 23h05:11 31.0072 -101.9153 282° West 364 674 35.900  Level Houston Center
Sun 23h06:11 31.0297 -102.0314 283° West 365 676 35.900  Level Houston Center
Sun 23h07:12 31.0500 -102.1467 282° West 364 674 35.900  Level Houston Center
Sun 23h08:13 31.0703 -102.2642 281° West 363 673 35.900  Level Houston Center
Sun 23h09:13 31.0917 -102.3828 282° West 365 676 35.900  Level Houston Center
Sun 23h09:28 31.1008 -102.4233 285° West 365 676 35.900  Level Albuquerque Center
Sun 23h10:30 31.1231 -102.5503 282° West 369 684 35.900  Level Albuquerque Center
Sun 23h11:31 31.1444 -102.6661 282° West 365 676 35.900  Level Albuquerque Center
Sun 23h12:32 31.1656 -102.7853 282° West 371 687 35.900  Level Albuquerque Center
Sun 23h13:33 31.1867 -102.9050 282° West 374 692 35.900  Level Albuquerque Center
Sun 23h14:35 31.2083 -103.0219 282° West 371 687 35.900  Level Albuquerque Center
Sun 23h15:36 31.2289 -103.1400 282° West 371 687 35.900  Level Albuquerque Center
Sun 23h16:37 31.2481 -103.2583 281° West 372 689 35.900  Level Albuquerque Center
Sun 23h17:38 31.2697 -103.3761 282° West 371 687 35.900  Level Albuquerque Center
Sun 23h18:40 31.2897 -103.4936 281° West 369 684 35.900  Level Albuquerque Center
Sun 23h19:41 31.3094 -103.6103 281° West 368 681 35.900  Level Albuquerque Center
Sun 23h20:42 31.3344 -103.7506 282° West 367 679 35.900  Level Albuquerque Center
Sun 23h21:43 31.3531 -103.8564 282° West 366 678 35.900  Level Albuquerque Center
Sun 23h22:45 31.3719 -103.9717 281° West 364 674 35.900  Level Albuquerque Center
Sun 23h23:46 31.3917 -104.0878 281° West 364 674 35.900  Level Albuquerque Center
Sun 23h24:47 31.4125 -104.2042 282° West 365 676 35.900  Level Albuquerque Center
Sun 23h25:48 31.4308 -104.3200 281° West 365 676 35.900  Level Albuquerque Center
Sun 23h26:50 31.4533 -104.4589 281° West 364 674 35.900  Level Albuquerque Center
Sun 23h27:51 31.4664 -104.5750 278° West 363 673 35.900  Level Albuquerque Center
Sun 23h28:52 31.4775 -104.6917 276° West 363 673 35.900 -1.171 Level Albuquerque Center
Sun 23h29:54 31.4897 -104.8083 277° West 363 673 33.500 -2.683 Descending Albuquerque Center
Sun 23h30:55 31.5017 -104.9264 277° West 367 679 30.400 -2.705 Descending Albuquerque Center
Sun 23h31:56 31.5144 -105.0422 277° West 363 673 28.000 -2.293 Descending Albuquerque Center
Sun 23h32:58 31.5250 -105.1531 276° West 350 649 25.700 -2.439 Descending Albuquerque Center
Sun 23h33:59 31.5386 -105.2825 277° West 338 626 23.000 -2.410 Descending Albuquerque Center
Sun 23h35:00 31.5481 -105.3914 276° West 339 628 20.800 -2.231 Descending Albuquerque Center
Sun 23h35:17 31.5508 -105.4272 275° West 331 613 20.100 -2.361 Descending Albuquerque Center
Sun 23h36:01 31.5597 -105.5042 278° West 351 650 18.400 -2.208 Descending Albuquerque Center
Sun 23h37:03 31.5708 -105.6197 276° West 349 647 16.200 -2.260 Descending Albuquerque Center
Sun 23h37:18 31.5744 -105.6536 277° West 347 642 15.500 -2.262 Descending Albuquerque Center
Sun 23h38:04 31.5814 -105.7281 276° West 338 626 13.900 -2.262 Descending Albuquerque Center
Sun 23h38:19 31.5839 -105.7608 275° West 331 613 13.200 -2.066 Descending Albuquerque Center
Sun 23h39:05 31.5992 -105.8269 285° West 324 600 11.800 -1.682 Descending Albuquerque Center
Sun 23h40:06 31.6436 -105.9122 301° West 308 570 10.200 -1.317 Descending Albuquerque Center
Sun 23h41:08 31.6822 -105.9881 301° West 274 507 9.100 -1.317 Descending Albuquerque Center
Sun 23h42:09 31.7181 -106.0606 300° West 258 478 7.500 -836 Descending Albuquerque Center
Sun 23h43:10 31.7428 -106.1492 288° West 234 433 7.400 -492 Descending Albuquerque Center
Sun 23h44:11 31.7622 -106.2161 289° West 220 407 6.500 -927 Descending Albuquerque Center
Sun 23h45:13 31.7842 -106.2744 294° West 192 356 5.500 -927 Descending Albuquerque Center
Sun 23h46:14 31.7983 -106.3186 291° West 145 269 4.600 -738 Descending Albuquerque Center
Sun 23h47:15 31.8017 -106.3636 275° West 138 256 4.000 -590 Descending Albuquerque Center
Sun 23h49:00 31.8000 -106.3667 270° West  Level FlightAware Approximate
Sun 23h56:00 31.8072 -106.3764 270° West  Level Estimated
Sun 23h57:00 31.8072 -106.3764 270° West  Level Estimated
Sun 23h58:00 31.8072 -106.3764 270° West  Level Estimated
Sun 23h59:00 31.8072 -106.3764 270° West  Level Estimated

Login

Don't have an account? Register now (free) for customized features, flight alerts, and more!